sensor_id;sensor_type;location;lat;lon;timestamp;P1;durP1;ratioP1;P2;durP2;ratioP2
58615;SDS011;44385;51.992;4.206;2023-02-28T00:02:24;4.63;;;3.17;;
58615;SDS011;44385;51.992;4.206;2023-02-28T00:04:50;6.85;;;3.60;;
58615;SDS011;44385;51.992;4.206;2023-02-28T00:07:19;7.50;;;3.90;;
58615;SDS011;44385;51.992;4.206;2023-02-28T00:09:47;5.68;;;4.07;;
58615;SDS011;44385;51.992;4.206;2023-02-28T00:12:13;4.55;;;2.80;;
58615;SDS011;44385;51.992;4.206;2023-02-28T00:14:40;5.47;;;3.50;;
58615;SDS011;44385;51.992;4.206;2023-02-28T00:17:06;6.15;;;3.67;;
58615;SDS011;44385;51.992;4.206;2023-02-28T00:19:33;5.50;;;3.00;;
58615;SDS011;44385;51.992;4.206;2023-02-28T00:21:59;5.05;;;3.38;;
58615;SDS011;44385;51.992;4.206;2023-02-28T00:24:27;7.00;;;3.15;;
58615;SDS011;44385;51.992;4.206;2023-02-28T00:26:53;7.72;;;3.05;;
58615;SDS011;44385;51.992;4.206;2023-02-28T00:29:20;7.03;;;3.38;;
58615;SDS011;44385;51.992;4.206;2023-02-28T00:31:47;4.70;;;3.17;;
58615;SDS011;44385;51.992;4.206;2023-02-28T00:34:13;7.50;;;3.13;;
58615;SDS011;44385;51.992;4.206;2023-02-28T00:36:40;8.60;;;3.70;;
58615;SDS011;44385;51.992;4.206;2023-02-28T00:39:10;6.75;;;3.38;;
58615;SDS011;44385;51.992;4.206;2023-02-28T00:41:40;8.18;;;2.97;;
58615;SDS011;44385;51.992;4.206;2023-02-28T00:46:33;6.30;;;3.00;;
58615;SDS011;44385;51.992;4.206;2023-02-28T00:48:59;5.20;;;3.25;;
58615;SDS011;44385;51.992;4.206;2023-02-28T00:51:26;4.90;;;3.38;;
58615;SDS011;44385;51.992;4.206;2023-02-28T00:53:52;6.15;;;2.88;;
58615;SDS011;44385;51.992;4.206;2023-02-28T00:56:19;6.75;;;3.00;;
58615;SDS011;44385;51.992;4.206;2023-02-28T00:58:48;5.15;;;3.03;;
58615;SDS011;44385;51.992;4.206;2023-02-28T01:01:14;5.35;;;3.10;;
58615;SDS011;44385;51.992;4.206;2023-02-28T01:03:41;5.10;;;2.90;;
58615;SDS011;44385;51.992;4.206;2023-02-28T01:06:07;5.97;;;3.65;;
58615;SDS011;44385;51.992;4.206;2023-02-28T01:08:34;3.42;;;2.58;;
58615;SDS011;44385;51.992;4.206;2023-02-28T01:11:06;5.93;;;2.70;;
58615;SDS011;44385;51.992;4.206;2023-02-28T01:13:33;3.75;;;2.63;;
58615;SDS011;44385;51.992;4.206;2023-02-28T01:16:01;5.15;;;2.63;;
58615;SDS011;44385;51.992;4.206;2023-02-28T01:18:28;6.20;;;3.45;;
58615;SDS011;44385;51.992;4.206;2023-02-28T01:20:55;4.53;;;2.60;;
58615;SDS011;44385;51.992;4.206;2023-02-28T01:23:22;5.20;;;2.65;;
58615;SDS011;44385;51.992;4.206;2023-02-28T01:25:49;4.82;;;2.50;;
58615;SDS011;44385;51.992;4.206;2023-02-28T01:28:16;5.15;;;2.50;;
58615;SDS011;44385;51.992;4.206;2023-02-28T01:30:42;5.82;;;2.70;;
58615;SDS011;44385;51.992;4.206;2023-02-28T01:33:10;3.38;;;2.90;;
58615;SDS011;44385;51.992;4.206;2023-02-28T01:35:36;5.30;;;2.33;;
58615;SDS011;44385;51.992;4.206;2023-02-28T01:38:03;6.40;;;2.67;;
58615;SDS011;44385;51.992;4.206;2023-02-28T01:40:29;4.00;;;2.78;;
58615;SDS011;44385;51.992;4.206;2023-02-28T01:42:56;4.32;;;2.22;;
58615;SDS011;44385;51.992;4.206;2023-02-28T01:45:24;5.88;;;2.60;;
58615;SDS011;44385;51.992;4.206;2023-02-28T01:47:52;5.68;;;2.90;;
58615;SDS011;44385;51.992;4.206;2023-02-28T01:50:23;6.95;;;2.67;;
58615;SDS011;44385;51.992;4.206;2023-02-28T01:52:51;5.93;;;2.97;;
58615;SDS011;44385;51.992;4.206;2023-02-28T01:55:21;5.00;;;2.45;;
58615;SDS011;44385;51.992;4.206;2023-02-28T01:57:49;3.88;;;2.70;;
58615;SDS011;44385;51.992;4.206;2023-02-28T02:00:17;5.25;;;2.55;;
58615;SDS011;44385;51.992;4.206;2023-02-28T02:02:45;4.78;;;2.97;;
58615;SDS011;44385;51.992;4.206;2023-02-28T02:05:14;5.18;;;2.75;;
58615;SDS011;44385;51.992;4.206;2023-02-28T02:07:43;3.65;;;2.45;;
58615;SDS011;44385;51.992;4.206;2023-02-28T02:10:13;5.25;;;2.92;;
58615;SDS011;44385;51.992;4.206;2023-02-28T02:12:45;4.95;;;3.15;;
58615;SDS011;44385;51.992;4.206;2023-02-28T02:15:14;5.72;;;3.25;;
58615;SDS011;44385;51.992;4.206;2023-02-28T02:17:43;5.22;;;2.95;;
58615;SDS011;44385;51.992;4.206;2023-02-28T02:25:39;6.05;;;2.92;;
58615;SDS011;44385;51.992;4.206;2023-02-28T02:28:32;6.75;;;3.30;;
58615;SDS011;44385;51.992;4.206;2023-02-28T02:31:05;5.50;;;3.53;;
58615;SDS011;44385;51.992;4.206;2023-02-28T02:33:43;6.05;;;3.47;;
58615;SDS011;44385;51.992;4.206;2023-02-28T02:38:44;6.97;;;3.60;;
58615;SDS011;44385;51.992;4.206;2023-02-28T02:41:14;5.78;;;3.60;;
58615;SDS011;44385;51.992;4.206;2023-02-28T02:43:44;8.45;;;4.55;;
58615;SDS011;44385;51.992;4.206;2023-02-28T02:46:14;3.80;;;3.40;;
58615;SDS011;44385;51.992;4.206;2023-02-28T02:48:41;5.53;;;3.45;;
58615;SDS011;44385;51.992;4.206;2023-02-28T02:51:10;5.75;;;3.95;;
58615;SDS011;44385;51.992;4.206;2023-02-28T02:53:40;9.10;;;3.65;;
58615;SDS011;44385;51.992;4.206;2023-02-28T02:56:09;5.95;;;3.97;;
58615;SDS011;44385;51.992;4.206;2023-02-28T02:58:38;7.70;;;4.18;;
58615;SDS011;44385;51.992;4.206;2023-02-28T03:01:07;6.32;;;4.10;;
58615;SDS011;44385;51.992;4.206;2023-02-28T03:03:35;8.10;;;4.00;;
58615;SDS011;44385;51.992;4.206;2023-02-28T03:06:02;5.90;;;3.78;;
58615;SDS011;44385;51.992;4.206;2023-02-28T03:08:29;6.13;;;3.75;;
58615;SDS011;44385;51.992;4.206;2023-02-28T03:10:56;8.13;;;4.22;;
58615;SDS011;44385;51.992;4.206;2023-02-28T03:16:14;7.22;;;3.67;;
58615;SDS011;44385;51.992;4.206;2023-02-28T03:18:44;7.90;;;4.10;;
58615;SDS011;44385;51.992;4.206;2023-02-28T03:21:15;5.80;;;4.15;;
58615;SDS011;44385;51.992;4.206;2023-02-28T03:23:45;6.65;;;3.63;;
58615;SDS011;44385;51.992;4.206;2023-02-28T03:26:16;5.88;;;4.22;;
58615;SDS011;44385;51.992;4.206;2023-02-28T03:28:48;8.75;;;4.32;;
58615;SDS011;44385;51.992;4.206;2023-02-28T03:31:19;4.65;;;3.72;;
58615;SDS011;44385;51.992;4.206;2023-02-28T03:33:49;6.63;;;3.88;;
58615;SDS011;44385;51.992;4.206;2023-02-28T03:36:20;6.32;;;4.18;;
58615;SDS011;44385;51.992;4.206;2023-02-28T03:38:48;6.63;;;4.07;;
58615;SDS011;44385;51.992;4.206;2023-02-28T03:41:19;6.85;;;4.28;;
58615;SDS011;44385;51.992;4.206;2023-02-28T03:43:48;9.95;;;4.63;;
58615;SDS011;44385;51.992;4.206;2023-02-28T03:46:16;6.22;;;4.70;;
58615;SDS011;44385;51.992;4.206;2023-02-28T03:48:51;8.15;;;4.68;;
58615;SDS011;44385;51.992;4.206;2023-02-28T03:51:20;6.95;;;4.47;;
58615;SDS011;44385;51.992;4.206;2023-02-28T03:53:49;7.20;;;4.72;;
58615;SDS011;44385;51.992;4.206;2023-02-28T03:56:18;6.40;;;4.63;;
58615;SDS011;44385;51.992;4.206;2023-02-28T03:58:47;6.13;;;4.70;;
58615;SDS011;44385;51.992;4.206;2023-02-28T04:01:15;8.05;;;4.57;;
58615;SDS011;44385;51.992;4.206;2023-02-28T04:03:43;5.35;;;4.57;;
58615;SDS011;44385;51.992;4.206;2023-02-28T04:06:14;6.70;;;4.65;;
58615;SDS011;44385;51.992;4.206;2023-02-28T04:08:41;8.38;;;4.70;;
58615;SDS011;44385;51.992;4.206;2023-02-28T04:11:11;9.43;;;5.50;;
58615;SDS011;44385;51.992;4.206;2023-02-28T04:13:39;9.10;;;4.90;;
58615;SDS011;44385;51.992;4.206;2023-02-28T04:16:06;9.95;;;5.28;;
58615;SDS011;44385;51.992;4.206;2023-02-28T04:18:37;5.88;;;4.65;;
58615;SDS011;44385;51.992;4.206;2023-02-28T04:21:03;8.32;;;5.03;;
58615;SDS011;44385;51.992;4.206;2023-02-28T04:23:31;7.80;;;4.70;;
58615;SDS011;44385;51.992;4.206;2023-02-28T04:25:58;8.05;;;5.05;;
58615;SDS011;44385;51.992;4.206;2023-02-28T04:28:27;6.88;;;4.97;;
58615;SDS011;44385;51.992;4.206;2023-02-28T04:30:54;7.03;;;5.43;;
58615;SDS011;44385;51.992;4.206;2023-02-28T04:33:21;9.32;;;5.05;;
58615;SDS011;44385;51.992;4.206;2023-02-28T04:35:47;9.60;;;5.53;;
58615;SDS011;44385;51.992;4.206;2023-02-28T04:38:14;11.50;;;5.55;;
58615;SDS011;44385;51.992;4.206;2023-02-28T04:40:42;8.18;;;4.90;;
58615;SDS011;44385;51.992;4.206;2023-02-28T04:43:08;5.90;;;4.85;;
58615;SDS011;44385;51.992;4.206;2023-02-28T04:45:34;9.88;;;5.32;;
58615;SDS011;44385;51.992;4.206;2023-02-28T04:48:02;8.73;;;5.43;;
58615;SDS011;44385;51.992;4.206;2023-02-28T04:50:28;8.90;;;5.35;;
58615;SDS011;44385;51.992;4.206;2023-02-28T04:52:55;7.00;;;5.03;;
58615;SDS011;44385;51.992;4.206;2023-02-28T04:55:22;8.95;;;5.70;;
58615;SDS011;44385;51.992;4.206;2023-02-28T04:57:50;8.13;;;5.40;;
58615;SDS011;44385;51.992;4.206;2023-02-28T05:00:17;9.32;;;5.25;;
58615;SDS011;44385;51.992;4.206;2023-02-28T05:02:43;10.35;;;5.18;;
58615;SDS011;44385;51.992;4.206;2023-02-28T05:05:09;8.60;;;5.53;;
58615;SDS011;44385;51.992;4.206;2023-02-28T05:07:37;9.85;;;5.45;;
58615;SDS011;44385;51.992;4.206;2023-02-28T05:10:03;8.13;;;5.53;;
58615;SDS011;44385;51.992;4.206;2023-02-28T05:12:30;7.82;;;5.63;;
58615;SDS011;44385;51.992;4.206;2023-02-28T05:14:57;7.75;;;5.55;;
58615;SDS011;44385;51.992;4.206;2023-02-28T05:17:24;8.20;;;5.18;;
58615;SDS011;44385;51.992;4.206;2023-02-28T05:19:50;7.18;;;4.68;;
58615;SDS011;44385;51.992;4.206;2023-02-28T05:22:16;8.23;;;5.30;;
58615;SDS011;44385;51.992;4.206;2023-02-28T05:24:43;7.80;;;5.00;;
58615;SDS011;44385;51.992;4.206;2023-02-28T05:27:09;8.15;;;5.35;;
58615;SDS011;44385;51.992;4.206;2023-02-28T05:29:36;7.88;;;5.40;;
58615;SDS011;44385;51.992;4.206;2023-02-28T05:32:08;8.43;;;5.72;;
58615;SDS011;44385;51.992;4.206;2023-02-28T05:34:34;10.60;;;6.38;;
58615;SDS011;44385;51.992;4.206;2023-02-28T05:37:00;8.45;;;5.78;;
58615;SDS011;44385;51.992;4.206;2023-02-28T05:39:27;9.18;;;6.68;;
58615;SDS011;44385;51.992;4.206;2023-02-28T05:41:53;9.10;;;6.63;;
58615;SDS011;44385;51.992;4.206;2023-02-28T05:44:20;8.05;;;7.13;;
58615;SDS011;44385;51.992;4.206;2023-02-28T05:46:47;12.52;;;7.90;;
58615;SDS011;44385;51.992;4.206;2023-02-28T05:49:15;11.07;;;7.43;;
58615;SDS011;44385;51.992;4.206;2023-02-28T05:51:41;11.32;;;7.70;;
58615;SDS011;44385;51.992;4.206;2023-02-28T05:54:07;13.18;;;7.85;;
58615;SDS011;44385;51.992;4.206;2023-02-28T05:56:34;12.77;;;8.00;;
58615;SDS011;44385;51.992;4.206;2023-02-28T05:59:02;10.15;;;7.95;;
58615;SDS011;44385;51.992;4.206;2023-02-28T06:01:32;10.30;;;7.68;;
58615;SDS011;44385;51.992;4.206;2023-02-28T06:03:59;12.38;;;6.95;;
58615;SDS011;44385;51.992;4.206;2023-02-28T06:06:27;9.57;;;7.80;;
58615;SDS011;44385;51.992;4.206;2023-02-28T06:08:54;9.55;;;7.93;;
58615;SDS011;44385;51.992;4.206;2023-02-28T06:11:21;13.98;;;8.73;;
58615;SDS011;44385;51.992;4.206;2023-02-28T06:13:52;11.13;;;8.32;;
58615;SDS011;44385;51.992;4.206;2023-02-28T06:16:19;11.68;;;8.10;;
58615;SDS011;44385;51.992;4.206;2023-02-28T06:18:48;14.43;;;8.27;;
58615;SDS011;44385;51.992;4.206;2023-02-28T06:21:14;11.95;;;8.88;;
58615;SDS011;44385;51.992;4.206;2023-02-28T06:23:42;10.45;;;8.68;;
58615;SDS011;44385;51.992;4.206;2023-02-28T06:26:09;10.73;;;8.98;;
58615;SDS011;44385;51.992;4.206;2023-02-28T06:28:35;11.10;;;8.38;;
58615;SDS011;44385;51.992;4.206;2023-02-28T06:31:05;13.88;;;9.52;;
58615;SDS011;44385;51.992;4.206;2023-02-28T06:33:32;13.10;;;9.25;;
58615;SDS011;44385;51.992;4.206;2023-02-28T06:35:58;11.38;;;8.95;;
58615;SDS011;44385;51.992;4.206;2023-02-28T06:38:25;14.35;;;8.90;;
58615;SDS011;44385;51.992;4.206;2023-02-28T06:40:56;13.77;;;9.45;;
58615;SDS011;44385;51.992;4.206;2023-02-28T06:43:22;12.50;;;9.07;;
58615;SDS011;44385;51.992;4.206;2023-02-28T06:45:49;12.70;;;9.60;;
58615;SDS011;44385;51.992;4.206;2023-02-28T06:48:15;13.43;;;9.23;;
58615;SDS011;44385;51.992;4.206;2023-02-28T06:50:42;12.40;;;9.43;;
58615;SDS011;44385;51.992;4.206;2023-02-28T06:53:09;12.05;;;9.00;;
58615;SDS011;44385;51.992;4.206;2023-02-28T06:55:37;10.63;;;9.02;;
58615;SDS011;44385;51.992;4.206;2023-02-28T06:58:05;12.30;;;9.43;;
58615;SDS011;44385;51.992;4.206;2023-02-28T07:00:39;12.57;;;9.15;;
58615;SDS011;44385;51.992;4.206;2023-02-28T07:03:06;14.15;;;9.55;;
58615;SDS011;44385;51.992;4.206;2023-02-28T07:05:34;12.48;;;8.35;;
58615;SDS011;44385;51.992;4.206;2023-02-28T07:08:00;14.02;;;9.18;;
58615;SDS011;44385;51.992;4.206;2023-02-28T07:10:28;15.30;;;9.10;;
58615;SDS011;44385;51.992;4.206;2023-02-28T07:12:54;10.65;;;8.60;;
58615;SDS011;44385;51.992;4.206;2023-02-28T07:15:22;14.07;;;9.35;;
58615;SDS011;44385;51.992;4.206;2023-02-28T07:17:48;10.63;;;9.50;;
58615;SDS011;44385;51.992;4.206;2023-02-28T07:20:15;12.18;;;9.32;;
58615;SDS011;44385;51.992;4.206;2023-02-28T07:22:41;12.10;;;9.55;;
58615;SDS011;44385;51.992;4.206;2023-02-28T07:25:08;14.73;;;9.77;;
58615;SDS011;44385;51.992;4.206;2023-02-28T07:27:34;14.32;;;9.25;;
58615;SDS011;44385;51.992;4.206;2023-02-28T07:30:01;11.80;;;9.90;;
58615;SDS011;44385;51.992;4.206;2023-02-28T07:32:30;15.85;;;9.57;;
58615;SDS011;44385;51.992;4.206;2023-02-28T07:34:56;15.90;;;9.32;;
58615;SDS011;44385;51.992;4.206;2023-02-28T07:37:22;13.90;;;8.93;;
58615;SDS011;44385;51.992;4.206;2023-02-28T07:39:49;11.10;;;8.85;;
58615;SDS011;44385;51.992;4.206;2023-02-28T07:42:16;10.60;;;7.75;;
58615;SDS011;44385;51.992;4.206;2023-02-28T07:44:42;11.57;;;7.30;;
58615;SDS011;44385;51.992;4.206;2023-02-28T07:47:09;9.93;;;7.97;;
58615;SDS011;44385;51.992;4.206;2023-02-28T07:49:37;11.90;;;7.50;;
58615;SDS011;44385;51.992;4.206;2023-02-28T07:52:04;15.07;;;7.88;;
58615;SDS011;44385;51.992;4.206;2023-02-28T07:54:30;7.65;;;6.28;;
58615;SDS011;44385;51.992;4.206;2023-02-28T07:56:57;11.15;;;6.68;;
58615;SDS011;44385;51.992;4.206;2023-02-28T07:59:23;10.35;;;6.80;;
58615;SDS011;44385;51.992;4.206;2023-02-28T08:01:49;8.45;;;6.22;;
58615;SDS011;44385;51.992;4.206;2023-02-28T08:04:16;11.05;;;6.43;;
58615;SDS011;44385;51.992;4.206;2023-02-28T08:06:44;11.35;;;7.22;;
58615;SDS011;44385;51.992;4.206;2023-02-28T08:09:10;9.45;;;7.05;;
58615;SDS011;44385;51.992;4.206;2023-02-28T08:11:36;8.18;;;7.30;;
58615;SDS011;44385;51.992;4.206;2023-02-28T08:14:03;10.07;;;7.18;;
58615;SDS011;44385;51.992;4.206;2023-02-28T08:16:29;10.50;;;6.82;;
58615;SDS011;44385;51.992;4.206;2023-02-28T08:18:56;8.35;;;7.20;;
58615;SDS011;44385;51.992;4.206;2023-02-28T08:21:22;12.52;;;8.20;;
58615;SDS011;44385;51.992;4.206;2023-02-28T08:23:50;12.43;;;7.95;;
58615;SDS011;44385;51.992;4.206;2023-02-28T08:26:17;11.85;;;8.05;;
58615;SDS011;44385;51.992;4.206;2023-02-28T08:28:44;11.55;;;8.23;;
58615;SDS011;44385;51.992;4.206;2023-02-28T08:31:11;13.13;;;9.18;;
58615;SDS011;44385;51.992;4.206;2023-02-28T08:33:38;11.63;;;8.63;;
58615;SDS011;44385;51.992;4.206;2023-02-28T08:36:06;11.02;;;9.02;;
58615;SDS011;44385;51.992;4.206;2023-02-28T08:38:32;10.18;;;8.93;;
58615;SDS011;44385;51.992;4.206;2023-02-28T08:41:00;13.50;;;9.70;;
58615;SDS011;44385;51.992;4.206;2023-02-28T08:43:27;14.05;;;10.25;;
58615;SDS011;44385;51.992;4.206;2023-02-28T08:45:54;11.80;;;9.65;;
58615;SDS011;44385;51.992;4.206;2023-02-28T08:48:21;13.43;;;9.88;;
58615;SDS011;44385;51.992;4.206;2023-02-28T08:50:54;12.57;;;9.77;;
58615;SDS011;44385;51.992;4.206;2023-02-28T08:53:20;11.70;;;10.43;;
58615;SDS011;44385;51.992;4.206;2023-02-28T08:55:47;12.27;;;10.55;;
58615;SDS011;44385;51.992;4.206;2023-02-28T08:58:15;13.23;;;10.98;;
58615;SDS011;44385;51.992;4.206;2023-02-28T09:00:41;12.77;;;10.38;;
58615;SDS011;44385;51.992;4.206;2023-02-28T09:03:07;11.88;;;9.63;;
58615;SDS011;44385;51.992;4.206;2023-02-28T09:05:34;12.23;;;10.93;;
58615;SDS011;44385;51.992;4.206;2023-02-28T09:08:00;14.50;;;10.48;;
58615;SDS011;44385;51.992;4.206;2023-02-28T09:10:27;12.85;;;10.40;;
58615;SDS011;44385;51.992;4.206;2023-02-28T09:12:53;13.90;;;10.52;;
58615;SDS011;44385;51.992;4.206;2023-02-28T09:15:21;11.40;;;9.98;;
58615;SDS011;44385;51.992;4.206;2023-02-28T09:17:47;11.40;;;9.95;;
58615;SDS011;44385;51.992;4.206;2023-02-28T09:20:14;13.77;;;11.23;;
58615;SDS011;44385;51.992;4.206;2023-02-28T09:22:40;12.80;;;11.38;;
58615;SDS011;44385;51.992;4.206;2023-02-28T09:25:07;12.80;;;10.10;;
58615;SDS011;44385;51.992;4.206;2023-02-28T09:27:33;9.98;;;8.73;;
58615;SDS011;44385;51.992;4.206;2023-02-28T09:29:59;8.23;;;7.25;;
58615;SDS011;44385;51.992;4.206;2023-02-28T09:32:27;10.15;;;7.85;;
58615;SDS011;44385;51.992;4.206;2023-02-28T09:34:53;7.07;;;6.32;;
58615;SDS011;44385;51.992;4.206;2023-02-28T09:37:23;10.98;;;6.90;;
58615;SDS011;44385;51.992;4.206;2023-02-28T09:39:49;6.65;;;5.72;;
58615;SDS011;44385;51.992;4.206;2023-02-28T09:42:18;8.07;;;6.25;;
58615;SDS011;44385;51.992;4.206;2023-02-28T09:44:47;6.50;;;5.78;;
58615;SDS011;44385;51.992;4.206;2023-02-28T09:47:24;5.68;;;5.03;;
58615;SDS011;44385;51.992;4.206;2023-02-28T09:49:53;5.45;;;4.95;;
58615;SDS011;44385;51.992;4.206;2023-02-28T09:52:21;6.45;;;4.40;;
58615;SDS011;44385;51.992;4.206;2023-02-28T09:54:50;7.15;;;4.45;;
58615;SDS011;44385;51.992;4.206;2023-02-28T09:57:17;6.28;;;4.25;;
58615;SDS011;44385;51.992;4.206;2023-02-28T09:59:51;7.18;;;4.32;;
58615;SDS011;44385;51.992;4.206;2023-02-28T10:02:23;5.00;;;3.97;;
58615;SDS011;44385;51.992;4.206;2023-02-28T10:05:00;5.07;;;3.77;;
58615;SDS011;44385;51.992;4.206;2023-02-28T10:07:35;5.07;;;4.57;;
58615;SDS011;44385;51.992;4.206;2023-02-28T10:10:07;4.30;;;3.90;;
58615;SDS011;44385;51.992;4.206;2023-02-28T10:12:41;6.18;;;3.95;;
58615;SDS011;44385;51.992;4.206;2023-02-28T10:15:09;4.70;;;3.80;;
58615;SDS011;44385;51.992;4.206;2023-02-28T10:17:40;4.85;;;4.30;;
58615;SDS011;44385;51.992;4.206;2023-02-28T10:20:09;6.45;;;5.07;;
58615;SDS011;44385;51.992;4.206;2023-02-28T10:22:39;5.53;;;4.22;;
58615;SDS011;44385;51.992;4.206;2023-02-28T10:25:11;6.53;;;4.67;;
58615;SDS011;44385;51.992;4.206;2023-02-28T10:27:42;5.57;;;4.20;;
58615;SDS011;44385;51.992;4.206;2023-02-28T10:30:09;5.43;;;3.53;;
58615;SDS011;44385;51.992;4.206;2023-02-28T10:32:38;5.45;;;3.80;;
58615;SDS011;44385;51.992;4.206;2023-02-28T10:35:07;4.63;;;3.10;;
58615;SDS011;44385;51.992;4.206;2023-02-28T10:37:39;3.67;;;3.38;;
58615;SDS011;44385;51.992;4.206;2023-02-28T10:40:06;4.78;;;3.70;;
58615;SDS011;44385;51.992;4.206;2023-02-28T10:42:33;4.15;;;3.67;;
58615;SDS011;44385;51.992;4.206;2023-02-28T10:45:05;5.30;;;4.50;;
58615;SDS011;44385;51.992;4.206;2023-02-28T10:47:31;4.30;;;3.70;;
58615;SDS011;44385;51.992;4.206;2023-02-28T10:49:59;4.60;;;4.00;;
58615;SDS011;44385;51.992;4.206;2023-02-28T10:52:33;10.25;;;4.72;;
58615;SDS011;44385;51.992;4.206;2023-02-28T10:55:14;7.15;;;3.95;;
58615;SDS011;44385;51.992;4.206;2023-02-28T10:57:41;7.13;;;4.57;;
58615;SDS011;44385;51.992;4.206;2023-02-28T11:00:13;7.85;;;6.30;;
58615;SDS011;44385;51.992;4.206;2023-02-28T11:02:40;11.40;;;5.93;;
58615;SDS011;44385;51.992;4.206;2023-02-28T11:05:21;6.78;;;5.05;;
58615;SDS011;44385;51.992;4.206;2023-02-28T11:07:51;6.72;;;4.65;;
58615;SDS011;44385;51.992;4.206;2023-02-28T11:10:19;7.53;;;4.63;;
58615;SDS011;44385;51.992;4.206;2023-02-28T11:12:47;5.32;;;4.22;;
58615;SDS011;44385;51.992;4.206;2023-02-28T11:15:19;6.93;;;4.20;;
58615;SDS011;44385;51.992;4.206;2023-02-28T11:17:52;4.68;;;4.18;;
58615;SDS011;44385;51.992;4.206;2023-02-28T11:20:20;8.13;;;4.13;;
58615;SDS011;44385;51.992;4.206;2023-02-28T11:22:48;6.40;;;3.58;;
58615;SDS011;44385;51.992;4.206;2023-02-28T11:25:19;4.55;;;3.75;;
58615;SDS011;44385;51.992;4.206;2023-02-28T11:27:51;3.78;;;3.33;;
58615;SDS011;44385;51.992;4.206;2023-02-28T11:30:25;5.07;;;3.60;;
58615;SDS011;44385;51.992;4.206;2023-02-28T11:32:51;6.70;;;3.97;;
58615;SDS011;44385;51.992;4.206;2023-02-28T11:35:19;3.85;;;3.25;;
58615;SDS011;44385;51.992;4.206;2023-02-28T11:37:47;4.55;;;3.00;;
58615;SDS011;44385;51.992;4.206;2023-02-28T11:40:14;3.50;;;2.63;;
58615;SDS011;44385;51.992;4.206;2023-02-28T11:42:45;4.00;;;2.88;;
58615;SDS011;44385;51.992;4.206;2023-02-28T11:45:24;3.30;;;2.83;;
58615;SDS011;44385;51.992;4.206;2023-02-28T11:47:58;3.45;;;3.08;;
58615;SDS011;44385;51.992;4.206;2023-02-28T11:50:47;4.30;;;3.33;;
58615;SDS011;44385;51.992;4.206;2023-02-28T11:53:17;3.95;;;2.72;;
58615;SDS011;44385;51.992;4.206;2023-02-28T11:55:48;4.32;;;2.75;;
58615;SDS011;44385;51.992;4.206;2023-02-28T11:58:18;4.60;;;3.00;;
58615;SDS011;44385;51.992;4.206;2023-02-28T12:00:55;3.10;;;2.80;;
58615;SDS011;44385;51.992;4.206;2023-02-28T12:03:27;3.00;;;2.60;;
58615;SDS011;44385;51.992;4.206;2023-02-28T12:06:01;4.18;;;2.95;;
58615;SDS011;44385;51.992;4.206;2023-02-28T12:08:34;2.40;;;2.13;;
58615;SDS011;44385;51.992;4.206;2023-02-28T12:11:06;3.17;;;2.67;;
58615;SDS011;44385;51.992;4.206;2023-02-28T12:13:38;2.45;;;2.25;;
58615;SDS011;44385;51.992;4.206;2023-02-28T12:16:15;4.13;;;2.90;;
58615;SDS011;44385;51.992;4.206;2023-02-28T12:18:49;3.03;;;2.22;;
58615;SDS011;44385;51.992;4.206;2023-02-28T12:21:21;2.92;;;2.63;;
58615;SDS011;44385;51.992;4.206;2023-02-28T12:23:57;3.20;;;2.60;;
58615;SDS011;44385;51.992;4.206;2023-02-28T12:26:31;3.80;;;2.38;;
58615;SDS011;44385;51.992;4.206;2023-02-28T12:29:00;2.47;;;2.20;;
58615;SDS011;44385;51.992;4.206;2023-02-28T12:31:30;4.05;;;2.50;;
58615;SDS011;44385;51.992;4.206;2023-02-28T12:34:01;2.40;;;2.20;;
58615;SDS011;44385;51.992;4.206;2023-02-28T12:36:29;3.28;;;2.53;;
58615;SDS011;44385;51.992;4.206;2023-02-28T12:38:56;3.00;;;2.33;;
58615;SDS011;44385;51.992;4.206;2023-02-28T12:41:27;3.35;;;2.30;;
58615;SDS011;44385;51.992;4.206;2023-02-28T12:43:55;2.35;;;2.15;;
58615;SDS011;44385;51.992;4.206;2023-02-28T12:46:25;2.47;;;2.28;;
58615;SDS011;44385;51.992;4.206;2023-02-28T12:48:56;2.90;;;2.08;;
58615;SDS011;44385;51.992;4.206;2023-02-28T12:51:23;2.57;;;2.37;;
58615;SDS011;44385;51.992;4.206;2023-02-28T12:53:54;2.92;;;2.58;;
58615;SDS011;44385;51.992;4.206;2023-02-28T12:56:27;2.50;;;2.30;;
58615;SDS011;44385;51.992;4.206;2023-02-28T12:58:57;2.10;;;1.95;;
58615;SDS011;44385;51.992;4.206;2023-02-28T13:01:32;2.25;;;2.13;;
58615;SDS011;44385;51.992;4.206;2023-02-28T13:06:59;2.65;;;2.38;;
58615;SDS011;44385;51.992;4.206;2023-02-28T13:09:31;2.70;;;2.50;;
58615;SDS011;44385;51.992;4.206;2023-02-28T13:11:58;2.25;;;2.00;;
58615;SDS011;44385;51.992;4.206;2023-02-28T13:14:26;2.78;;;2.50;;
58615;SDS011;44385;51.992;4.206;2023-02-28T13:17:02;3.63;;;2.42;;
58615;SDS011;44385;51.992;4.206;2023-02-28T13:19:29;2.50;;;2.30;;
58615;SDS011;44385;51.992;4.206;2023-02-28T13:21:56;3.40;;;2.25;;
58615;SDS011;44385;51.992;4.206;2023-02-28T13:24:42;2.05;;;1.95;;
58615;SDS011;44385;51.992;4.206;2023-02-28T13:29:53;2.97;;;2.17;;
58615;SDS011;44385;51.992;4.206;2023-02-28T13:32:27;2.90;;;2.20;;
58615;SDS011;44385;51.992;4.206;2023-02-28T13:35:12;3.38;;;2.20;;
58615;SDS011;44385;51.992;4.206;2023-02-28T13:37:41;2.35;;;2.20;;
58615;SDS011;44385;51.992;4.206;2023-02-28T13:40:32;3.42;;;2.33;;
58615;SDS011;44385;51.992;4.206;2023-02-28T13:43:02;2.50;;;2.30;;
58615;SDS011;44385;51.992;4.206;2023-02-28T13:45:29;2.70;;;2.50;;
58615;SDS011;44385;51.992;4.206;2023-02-28T13:48:02;2.63;;;2.30;;
58615;SDS011;44385;51.992;4.206;2023-02-28T13:50:30;3.63;;;2.53;;
58615;SDS011;44385;51.992;4.206;2023-02-28T13:53:21;2.65;;;1.77;;
58615;SDS011;44385;51.992;4.206;2023-02-28T13:55:50;2.80;;;2.10;;
58615;SDS011;44385;51.992;4.206;2023-02-28T13:58:23;4.18;;;2.92;;
58615;SDS011;44385;51.992;4.206;2023-02-28T14:01:06;3.90;;;3.20;;
58615;SDS011;44385;51.992;4.206;2023-02-28T14:03:41;4.18;;;3.08;;
58615;SDS011;44385;51.992;4.206;2023-02-28T14:06:14;4.05;;;3.00;;
58615;SDS011;44385;51.992;4.206;2023-02-28T14:08:45;3.47;;;2.30;;
58615;SDS011;44385;51.992;4.206;2023-02-28T14:11:23;2.95;;;2.42;;
58615;SDS011;44385;51.992;4.206;2023-02-28T14:13:50;2.57;;;2.43;;
58615;SDS011;44385;51.992;4.206;2023-02-28T14:16:17;2.38;;;2.17;;
58615;SDS011;44385;51.992;4.206;2023-02-28T14:18:48;3.83;;;3.40;;
58615;SDS011;44385;51.992;4.206;2023-02-28T14:21:19;5.55;;;2.97;;
58615;SDS011;44385;51.992;4.206;2023-02-28T14:23:55;2.40;;;2.20;;
58615;SDS011;44385;51.992;4.206;2023-02-28T14:26:41;3.80;;;2.85;;
58615;SDS011;44385;51.992;4.206;2023-02-28T14:31:54;5.07;;;3.10;;
58615;SDS011;44385;51.992;4.206;2023-02-28T14:34:26;3.55;;;2.88;;
58615;SDS011;44385;51.992;4.206;2023-02-28T14:36:58;4.68;;;3.50;;
58615;SDS011;44385;51.992;4.206;2023-02-28T14:39:25;3.17;;;2.97;;
58615;SDS011;44385;51.992;4.206;2023-02-28T14:41:53;3.85;;;3.30;;
58615;SDS011;44385;51.992;4.206;2023-02-28T14:44:20;4.22;;;2.90;;
58615;SDS011;44385;51.992;4.206;2023-02-28T14:46:48;3.35;;;2.80;;
58615;SDS011;44385;51.992;4.206;2023-02-28T14:49:17;3.17;;;2.95;;
58615;SDS011;44385;51.992;4.206;2023-02-28T14:51:44;4.85;;;3.10;;
58615;SDS011;44385;51.992;4.206;2023-02-28T14:54:13;3.28;;;2.75;;
58615;SDS011;44385;51.992;4.206;2023-02-28T14:56:40;3.38;;;3.08;;
58615;SDS011;44385;51.992;4.206;2023-02-28T14:59:21;3.05;;;2.80;;
58615;SDS011;44385;51.992;4.206;2023-02-28T15:01:49;3.35;;;2.80;;
58615;SDS011;44385;51.992;4.206;2023-02-28T15:04:18;2.70;;;2.42;;
58615;SDS011;44385;51.992;4.206;2023-02-28T15:06:50;3.88;;;3.38;;
58615;SDS011;44385;51.992;4.206;2023-02-28T15:09:32;2.83;;;2.63;;
58615;SDS011;44385;51.992;4.206;2023-02-28T15:11:59;3.90;;;3.10;;
58615;SDS011;44385;51.992;4.206;2023-02-28T15:14:27;4.10;;;3.38;;
58615;SDS011;44385;51.992;4.206;2023-02-28T15:16:55;3.40;;;3.00;;